Terminal Aerodrome Forecast
Issued by NWS

Home | Current Version | Previous Version | Text Only | Print | Product List | Glossary On
Versions: 1 2 3 4 5 6 7 8 9 10 11 12 13 14 15 16 17 18 19 20 21 22 23 24 25 26 27 28
000
FTUS44 KOUN 010520
TAFWWR
TAF
KWWR 010520Z 0106/0206 20003KT P6SM SCT050 BKN100 OVC200
     FM011200 20006KT P6SM SCT050 BKN100 OVC200
     FM011800 19011KT P6SM SCT050 SCT100 BKN200 PROB30 0118/0121 4SM
      -TSRA BKN040CB=

USA.gov is the U.S. government's official web portal to all federal, state and local government web resources and services.